Time;durP1;ratioP1;P1;durP2;ratioP2;P2;SDS_P1;SDS_P2;PMS_P1;PMS_P2;Temp;Humidity;BMP_temperature;BMP_pressure;BME280_temperature;BME280_humidity;BME280_pressure;Samples;Min_cycle;Max_cycle;Signal;HPM_P1;HPM_P2
2023/05/17 00:02:21;;;;;;;10.57;4.70;;;13.60;72.80;;;16.31;50.67;102004.22;5052970;28;20194;-67
2023/05/17 00:04:48;;;;;;;13.63;4.93;;;13.50;72.60;;;16.33;51.03;102012.81;5052985;28;20241;-67
2023/05/17 00:07:15;;;;;;;11.67;4.27;;;13.50;73.00;;;16.34;50.72;102019.78;5056278;28;20293;-67
2023/05/17 00:09:42;;;;;;;14.03;4.30;;;13.50;73.00;;;16.36;50.70;102020.41;5056267;28;20194;-67
2023/05/17 00:12:09;;;;;;;11.77;4.33;;;13.50;73.10;;;16.39;50.77;102017.41;5056625;28;20186;-67
2023/05/17 00:14:36;;;;;;;14.90;5.07;;;13.50;73.30;;;16.42;50.96;102025.84;5055898;28;20577;-67
2023/05/17 00:17:05;;;;;;;9.80;4.37;;;13.50;73.10;;;16.44;50.38;102017.69;5056515;28;20181;-68
2023/05/17 00:19:32;;;;;;;10.73;4.57;;;13.50;72.60;;;16.49;50.47;102028.59;5056541;28;20194;-67
2023/05/17 00:21:59;;;;;;;12.63;4.40;;;13.50;72.70;;;16.51;50.47;102022.13;5056247;28;20594;-67
2023/05/17 00:24:26;;;;;;;15.73;5.20;;;13.60;73.00;;;16.53;50.03;102020.13;5056021;28;20576;-67
2023/05/17 00:26:53;;;;;;;10.23;4.67;;;13.60;72.60;;;16.56;50.26;102032.22;5056118;28;20237;-68
2023/05/17 00:29:20;;;;;;;12.23;4.53;;;13.60;72.30;;;16.59;50.03;102034.53;5056079;28;20215;-67
2023/05/17 00:31:46;;;;;;;12.77;4.30;;;13.60;72.00;;;16.61;50.09;102035.16;5055813;28;20200;-67
2023/05/17 00:34:15;;;;;;;9.53;4.17;;;13.70;71.90;;;16.62;49.42;102034.13;5055781;28;20214;-68
2023/05/17 00:36:42;;;;;;;9.20;4.40;;;13.70;71.60;;;16.59;49.12;102034.53;5055754;28;20192;-67
2023/05/17 00:39:09;;;;;;;11.70;4.23;;;13.70;71.00;;;16.56;49.17;102034.88;5055671;28;20677;-67
2023/05/17 00:41:36;;;;;;;7.83;3.10;;;13.70;70.10;;;16.51;48.87;102023.94;5055374;28;20702;-68
2023/05/17 00:44:03;;;;;;;11.27;4.43;;;13.70;69.80;;;16.43;48.63;102037.28;5055483;28;20217;-67
2023/05/17 00:46:32;;;;;;;10.43;4.33;;;13.60;69.20;;;16.37;48.05;102030.88;5055787;28;20292;-68
2023/05/17 00:48:59;;;;;;;9.97;3.73;;;13.50;68.50;;;16.31;48.56;102033.44;5054611;28;20285;-67
2023/05/17 00:51:28;;;;;;;7.20;3.50;;;13.50;68.40;;;16.27;47.64;102031.13;5055624;28;20225;-67
2023/05/17 00:53:56;;;;;;;12.47;3.80;;;13.50;67.10;;;16.23;46.52;102029.84;5055260;28;20186;-67
2023/05/17 00:56:23;;;;;;;9.93;3.57;;;13.40;65.30;;;16.18;45.89;102032.22;5055524;28;20225;-67
2023/05/17 00:58:52;;;;;;;12.87;3.93;;;13.40;64.50;;;16.14;46.28;102028.25;5055468;28;20745;-67
2023/05/17 01:01:19;;;;;;;6.67;3.03;;;13.40;65.40;;;16.09;45.30;102033.25;5055482;28;20224;-67
2023/05/17 01:03:47;;;;;;;7.53;3.23;;;13.30;63.60;;;16.08;45.95;102041.44;5055187;28;20201;-67
2023/05/17 01:06:15;;;;;;;9.97;3.80;;;13.30;64.30;;;16.04;45.45;102034.81;5055303;28;20260;-67
2023/05/17 01:08:44;;;;;;;9.57;3.60;;;13.20;63.70;;;16.03;45.58;102039.31;5054885;28;20274;-68
2023/05/17 01:11:38;;;;;;;15.77;3.60;;;13.20;63.90;;;15.99;45.45;102048.63;5055273;28;20202;-67
2023/05/17 01:14:26;;;;;;;10.37;3.83;;;13.20;64.60;;;15.96;45.40;102041.03;5054722;28;20234;-67
2023/05/17 01:17:01;;;;;;;12.47;3.50;;;13.20;64.00;;;15.95;45.84;102042.00;5034546;28;20187;-67
2023/05/17 01:19:52;;;;;;;9.97;3.73;;;13.20;64.20;;;15.91;45.40;102040.72;5035327;28;20469;-67
2023/05/17 01:22:31;;;;;;;13.27;4.03;;;13.20;64.70;;;15.90;45.88;102044.38;5035162;28;20242;-68
2023/05/17 01:25:39;;;;;;;16.57;4.53;;;13.20;64.70;;;15.83;46.36;102046.06;5034889;28;20234;-67
2023/05/17 01:28:09;;;;;;;17.50;4.53;;;13.10;65.30;;;15.86;46.29;102048.38;5038960;28;20300;-67
2023/05/17 01:30:37;;;;;;;8.63;3.83;;;13.10;65.50;;;15.83;46.34;102042.63;5055056;28;20201;-67
2023/05/17 01:33:06;;;;;;;10.03;3.80;;;13.10;65.30;;;15.78;46.46;102045.81;5054560;28;20213;-67
2023/05/17 01:35:33;;;;;;;11.70;4.97;;;13.00;65.50;;;15.74;46.62;102043.66;5054735;28;20224;-67
2023/05/17 01:38:00;;;;;;;12.83;4.93;;;13.00;65.70;;;15.69;46.78;102041.53;5054994;28;20239;-67
2023/05/17 01:40:29;;;;;;;9.63;3.83;;;12.90;65.80;;;15.65;46.92;102056.16;5054557;28;20273;-67
2023/05/17 01:43:09;;;;;;;15.23;4.53;;;12.90;66.10;;;15.59;46.82;102056.88;5054263;28;20634;-67
2023/05/17 01:45:45;;;;;;;11.03;4.50;;;12.80;66.40;;;15.55;46.98;102060.84;5054578;28;20219;-65
2023/05/17 01:48:20;;;;;;;17.53;4.80;;;12.80;66.60;;;15.50;47.44;102063.19;5054501;28;20650;-67
2023/05/17 01:50:53;;;;;;;9.83;3.83;;;12.70;66.90;;;15.46;47.52;102070.69;5054570;28;20208;-67
2023/05/17 01:53:31;;;;;;;15.73;4.77;;;12.70;67.70;;;15.40;47.38;102081.16;5054179;28;20192;-67
2023/05/17 01:56:06;;;;;;;9.40;3.40;;;12.60;67.10;;;15.36;47.63;102082.47;5054867;28;20209;-67
2023/05/17 01:58:45;;;;;;;11.57;4.33;;;12.60;67.30;;;15.32;47.58;102081.19;5054357;28;20197;-67
2023/05/17 02:01:15;;;;;;;14.90;4.73;;;12.60;67.90;;;15.31;47.66;102083.00;5054251;28;20239;-67
2023/05/17 02:03:42;;;;;;;14.53;4.83;;;12.50;67.90;;;15.29;47.91;102081.50;5053630;28;20198;-67
2023/05/17 02:06:10;;;;;;;13.13;4.77;;;12.50;68.00;;;15.26;47.90;102085.34;5054487;28;20658;-67
2023/05/17 02:08:37;;;;;;;15.07;4.43;;;12.40;68.10;;;15.25;48.24;102082.88;5053659;28;20214;-67
2023/05/17 02:11:04;;;;;;;13.43;3.90;;;12.40;68.40;;;15.26;48.45;102081.88;5054272;28;20189;-67
2023/05/17 02:13:31;;;;;;;13.33;5.57;;;12.40;68.50;;;15.25;48.19;102082.88;5052647;28;20213;-67
2023/05/17 02:16:01;;;;;;;16.70;4.90;;;12.40;68.70;;;15.23;48.31;102087.53;5053863;28;20224;-67
2023/05/17 02:18:29;;;;;;;11.80;4.20;;;12.40;68.80;;;15.21;48.55;102081.56;5054059;28;20261;-67
2023/05/17 02:20:57;;;;;;;10.03;4.07;;;12.40;69.00;;;15.20;48.61;102099.28;5053942;28;20190;-67
2023/05/17 02:23:23;;;;;;;11.03;3.80;;;12.40;69.10;;;15.20;48.51;102098.47;5052924;28;20190;-66
2023/05/17 02:25:50;;;;;;;10.77;4.30;;;12.40;69.10;;;15.20;48.71;102094.00;5053524;28;20263;-67
2023/05/17 02:28:17;;;;;;;16.20;5.87;;;12.30;69.40;;;15.25;48.79;102104.09;5053560;28;20284;-67
2023/05/17 02:30:44;;;;;;;15.53;5.83;;;12.40;69.30;;;15.29;48.52;102102.72;5053514;28;20197;-67
2023/05/17 02:33:13;;;;;;;13.27;4.30;;;12.40;69.10;;;15.32;48.57;102103.22;5053336;28;20186;-67
2023/05/17 02:35:40;;;;;;;11.87;4.27;;;12.40;69.00;;;15.33;48.14;102099.56;5053726;28;20562;-67
2023/05/17 02:38:07;;;;;;;12.87;4.40;;;12.40;68.90;;;15.32;48.23;102107.72;5053763;28;20213;-69
2023/05/17 02:40:34;;;;;;;14.20;4.10;;;12.40;68.80;;;15.28;48.48;102101.94;5053595;28;20638;-67
2023/05/17 02:43:01;;;;;;;12.40;4.03;;;12.40;68.80;;;15.26;48.20;102100.44;5052919;28;20236;-67
2023/05/17 02:45:29;;;;;;;11.90;4.33;;;12.40;68.90;;;15.21;48.29;102110.75;5053340;28;20213;-67
2023/05/17 02:47:56;;;;;;;15.83;4.37;;;12.40;69.10;;;15.18;48.39;102114.56;5053599;28;20701;-67
2023/05/17 02:50:25;;;;;;;12.43;3.87;;;12.30;69.10;;;15.16;48.79;102113.91;5053643;28;20190;-67
2023/05/17 02:52:52;;;;;;;11.77;4.37;;;12.30;69.40;;;15.18;48.84;102106.59;5053143;28;20690;-68
2023/05/17 02:55:19;;;;;;;11.73;3.73;;;12.30;69.70;;;15.22;48.89;102123.00;5053516;28;20343;-68
2023/05/17 02:57:46;;;;;;;19.33;6.10;;;12.30;69.60;;;15.25;48.78;102117.34;5053344;28;20217;-68
2023/05/17 03:00:15;;;;;;;16.37;6.03;;;12.30;69.40;;;15.26;48.49;102119.03;5053254;28;20194;-68
2023/05/17 03:02:42;;;;;;;15.43;6.07;;;12.30;68.90;;;15.28;48.26;102117.03;5053202;28;20672;-66
2023/05/17 03:05:09;;;;;;;13.23;5.20;;;12.30;69.10;;;15.30;48.21;102120.31;5052743;28;20209;-69
2023/05/17 03:07:38;;;;;;;14.53;4.23;;;12.40;68.30;;;15.30;47.90;102136.25;5052526;28;20704;-68
2023/05/17 03:10:06;;;;;;;9.90;4.20;;;12.40;68.10;;;15.29;47.67;102135.41;5053175;28;20272;-67
2023/05/17 03:12:33;;;;;;;14.73;4.70;;;12.40;67.90;;;15.26;47.86;102134.94;5053371;28;20200;-68
2023/05/17 03:15:00;;;;;;;13.57;4.47;;;12.40;67.70;;;15.24;47.86;102139.56;5052558;28;20297;-68
2023/05/17 03:17:27;;;;;;;12.33;3.87;;;12.40;67.70;;;15.22;47.47;102141.56;5052597;28;20186;-69
2023/05/17 03:19:55;;;;;;;6.00;2.50;;;12.40;67.10;;;15.23;46.99;102140.56;5052371;28;20255;-68
2023/05/17 03:22:22;;;;;;;10.20;3.00;;;12.30;65.60;;;15.20;46.67;102140.91;5052720;28;20217;-68
2023/05/17 03:24:50;;;;;;;12.80;2.70;;;12.40;65.60;;;15.18;46.44;102149.03;5052849;28;20217;-68
2023/05/17 03:27:17;;;;;;;17.27;3.60;;;12.30;65.00;;;15.17;46.50;102146.53;5053167;28;20222;-68
2023/05/17 03:29:44;;;;;;;8.00;3.13;;;12.30;65.00;;;15.16;46.26;102144.91;5054034;28;20200;-68
2023/05/17 03:32:11;;;;;;;12.60;3.10;;;12.30;64.60;;;15.16;45.64;102150.22;5051843;28;20622;-69
2023/05/17 03:34:38;;;;;;;8.33;2.50;;;12.30;63.40;;;15.13;45.30;102147.88;5052777;28;20212;-68
2023/05/17 03:37:05;;;;;;;7.90;2.40;;;12.30;62.60;;;15.11;44.21;102157.84;5053026;28;20273;-68
2023/05/17 03:39:32;;;;;;;8.23;2.53;;;12.20;60.80;;;15.10;44.15;102161.47;5053036;28;20730;-69
2023/05/17 03:42:01;;;;;;;8.50;2.30;;;12.20;61.10;;;15.10;44.24;102161.47;5056636;28;20247;-69
2023/05/17 03:44:28;;;;;;;9.57;2.53;;;12.20;61.30;;;15.14;44.13;102168.13;5056688;28;20297;-69
2023/05/17 03:46:55;;;;;;;7.23;3.00;;;12.20;61.00;;;15.16;43.91;102171.44;5056985;28;20201;-68
2023/05/17 03:49:21;;;;;;;5.83;2.33;;;12.20;60.80;;;15.23;43.67;102172.41;5056687;28;20196;-68
2023/05/17 03:51:48;;;;;;;9.27;2.50;;;12.30;61.20;;;15.32;43.83;102176.69;5056318;28;20200;-68
2023/05/17 03:54:15;;;;;;;11.30;3.07;;;12.40;61.40;;;15.36;43.75;102178.00;5056454;28;20285;-69
2023/05/17 03:56:45;;;;;;;12.70;3.73;;;12.40;60.90;;;15.43;43.96;102189.56;5056389;28;20551;-69
2023/05/17 03:59:14;;;;;;;8.10;3.53;;;12.40;61.20;;;15.47;43.53;102181.16;5056576;28;20186;-67
2023/05/17 04:01:42;;;;;;;15.07;4.23;;;12.50;61.20;;;15.50;43.78;102190.59;5055871;28;20228;-67
2023/05/17 04:04:09;;;;;;;6.47;2.83;;;12.50;61.30;;;15.49;43.74;102199.56;5055858;28;20214;-69
2023/05/17 04:06:37;;;;;;;10.93;3.50;;;12.50;61.50;;;15.47;43.88;102193.59;5056131;28;20217;-68
2023/05/17 04:09:06;;;;;;;13.00;3.63;;;12.50;61.80;;;15.47;44.07;102198.91;5056189;28;20232;-68
2023/05/17 04:11:33;;;;;;;9.30;3.40;;;12.50;62.00;;;15.47;43.74;102196.25;5056636;28;20230;-69
2023/05/17 04:14:00;;;;;;;6.83;3.13;;;12.50;62.20;;;15.46;44.05;102203.38;5056158;28;20272;-67
2023/05/17 04:16:28;;;;;;;8.27;3.27;;;12.50;62.30;;;15.44;44.27;102202.72;5056463;28;20194;-67
2023/05/17 04:18:55;;;;;;;13.37;4.00;;;12.50;62.40;;;15.45;44.40;102203.56;5056511;28;20528;-69
2023/05/17 04:21:22;;;;;;;9.73;3.27;;;12.50;62.80;;;15.48;44.67;102208.50;5056199;28;20232;-69
2023/05/17 04:23:49;;;;;;;9.03;3.07;;;12.50;63.10;;;15.51;44.78;102213.47;5043788;28;20198;-69
2023/05/17 04:26:16;;;;;;;6.93;3.27;;;12.50;63.30;;;15.53;44.50;102211.47;5036208;28;20249;-69
2023/05/17 04:28:43;;;;;;;11.77;3.37;;;12.50;63.00;;;15.51;44.40;102213.47;5045239;28;20292;-68
2023/05/17 04:31:12;;;;;;;9.10;3.23;;;12.50;62.80;;;15.49;44.17;102221.63;5056181;28;20289;-68
2023/05/17 04:33:41;;;;;;;10.50;3.27;;;12.50;61.90;;;15.50;44.03;102217.13;5055375;28;20595;-68
2023/05/17 04:36:08;;;;;;;10.97;3.50;;;12.50;61.90;;;15.50;44.24;102210.00;5055507;28;20209;-67
2023/05/17 04:38:35;;;;;;;13.33;3.70;;;12.50;62.30;;;15.47;44.34;102212.19;5055975;28;20278;-68
2023/05/17 04:41:03;;;;;;;7.13;3.07;;;12.50;62.40;;;15.42;44.50;102219.78;5055834;28;20252;-67
2023/05/17 04:43:31;;;;;;;8.13;3.20;;;12.50;62.70;;;15.38;44.20;102229.09;5055435;28;20186;-68
2023/05/17 04:45:59;;;;;;;13.43;3.43;;;12.40;62.70;;;15.33;44.70;102231.41;5055562;28;20260;-68
2023/05/17 04:48:29;;;;;;;9.03;3.83;;;12.40;62.60;;;15.28;44.35;102241.69;5055155;28;20288;-68
2023/05/17 04:50:59;;;;;;;11.70;3.47;;;12.40;62.40;;;15.22;44.63;102242.34;5055138;28;20181;-68
2023/05/17 04:53:26;;;;;;;9.20;3.73;;;12.30;62.40;;;15.22;44.83;102240.53;5054691;28;20193;-71
2023/05/17 04:55:53;;;;;;;13.53;3.30;;;12.30;62.60;;;15.25;44.80;102247.34;5055279;28;20217;-68
2023/05/17 04:58:20;;;;;;;11.37;3.60;;;12.30;62.90;;;15.33;45.00;102252.63;5054815;28;20268;-68
2023/05/17 05:00:47;;;;;;;11.80;4.13;;;12.40;62.90;;;15.42;44.70;102256.94;5054681;28;20197;-68
2023/05/17 05:03:14;;;;;;;7.30;3.10;;;12.40;62.70;;;15.50;44.20;102249.81;5054518;28;20273;-68
2023/05/17 05:05:42;;;;;;;14.17;4.50;;;12.50;62.10;;;15.56;43.76;102258.91;5054416;28;20205;-68
2023/05/17 05:08:10;;;;;;;6.43;3.40;;;12.60;61.70;;;15.65;44.14;102271.19;5054561;28;20220;-68
2023/05/17 05:10:37;;;;;;;14.07;3.83;;;12.60;62.10;;;15.73;43.85;102271.16;5054797;28;20232;-68
2023/05/17 05:13:04;;;;;;;8.07;3.00;;;12.70;61.60;;;15.84;43.44;102276.09;5054791;28;20767;-68
2023/05/17 05:15:32;;;;;;;9.30;2.77;;;12.80;61.30;;;15.95;42.99;102282.88;5055171;28;20288;-68
2023/05/17 05:17:59;;;;;;;12.80;4.10;;;12.80;60.60;;;16.01;42.55;102284.84;5054566;28;20186;-68
2023/05/17 05:20:26;;;;;;;9.83;4.57;;;12.90;59.60;;;16.04;41.96;102281.84;5054808;28;20186;-68
2023/05/17 05:22:54;;;;;;;16.30;4.20;;;12.90;59.10;;;16.06;41.76;102283.34;5054005;28;20193;-68
2023/05/17 05:25:22;;;;;;;16.27;3.83;;;13.00;59.20;;;16.09;41.72;102284.81;5054359;28;20210;-68
2023/05/17 05:27:49;;;;;;;7.57;2.87;;;13.00;58.60;;;16.07;41.73;102292.94;5054431;28;20604;-68
2023/05/17 05:30:20;;;;;;;7.67;3.10;;;13.00;58.80;;;16.09;41.75;102288.28;5054282;28;20239;-68
2023/05/17 05:32:48;;;;;;;7.10;3.60;;;13.00;58.50;;;16.13;41.49;102300.25;5053976;28;20265;-69
2023/05/17 05:35:17;;;;;;;10.33;3.23;;;13.00;58.20;;;16.16;41.63;102304.38;5053732;28;20206;-67
2023/05/17 05:37:44;;;;;;;7.63;3.87;;;13.10;58.20;;;16.15;40.97;102308.84;5054377;28;20232;-67
2023/05/17 05:40:13;;;;;;;9.53;3.30;;;13.10;58.00;;;16.13;41.10;102316.19;5054493;28;20693;-67
2023/05/17 05:42:42;;;;;;;9.50;3.80;;;13.10;58.00;;;16.14;41.20;102312.50;5034386;28;20718;-67
2023/05/17 05:45:10;;;;;;;11.60;3.30;;;13.10;58.00;;;16.16;41.26;102318.47;5033890;28;20232;-69
2023/05/17 05:47:37;;;;;;;7.27;3.63;;;13.10;58.20;;;16.24;41.69;102318.44;5034429;28;20195;-69
2023/05/17 05:50:07;;;;;;;8.67;4.03;;;13.10;58.20;;;16.35;40.94;102327.88;5032552;28;20186;-69
2023/05/17 05:52:34;;;;;;;12.83;4.93;;;13.20;57.90;;;16.42;40.53;102335.97;5033775;28;20278;-67
2023/05/17 05:55:01;;;;;;;8.37;3.67;;;13.30;57.20;;;16.49;39.90;102336.94;5033662;28;20257;-69
2023/05/17 05:57:28;;;;;;;14.17;2.93;;;13.30;56.10;;;16.52;39.18;102350.72;5051271;28;20727;-70
2023/05/17 05:59:56;;;;;;;10.20;3.30;;;13.30;55.60;;;16.58;39.43;102349.22;5053821;28;20217;-69
2023/05/17 06:02:24;;;;;;;7.40;2.90;;;13.40;55.30;;;16.65;38.94;102352.84;5053164;28;20281;-68
2023/05/17 06:04:51;;;;;;;9.93;3.30;;;13.40;55.10;;;16.69;38.46;102356.78;5051983;28;20218;-69
2023/05/17 06:07:18;;;;;;;10.90;3.50;;;13.50;54.80;;;16.78;38.77;102358.44;5052974;28;20186;-69
2023/05/17 06:09:44;;;;;;;9.77;3.10;;;13.50;55.30;;;16.93;38.70;102364.63;5053772;28;20656;-68
2023/05/17 06:12:12;;;;;;;12.07;3.33;;;13.60;54.80;;;17.05;38.32;102360.56;5053312;28;20198;-68
2023/05/17 06:14:39;;;;;;;9.47;3.20;;;13.70;54.70;;;17.14;37.93;102372.81;5052841;28;20209;-68
2023/05/17 06:17:07;;;;;;;11.40;3.50;;;13.80;53.80;;;17.17;37.59;102372.47;5053476;28;20738;-68
2023/05/17 06:19:34;;;;;;;9.70;3.40;;;13.90;53.40;;;17.18;37.24;102375.97;5053366;28;20186;-68
2023/05/17 06:22:01;;;;;;;9.47;3.53;;;13.90;53.10;;;17.21;37.55;102371.09;5053483;28;20205;-68
2023/05/17 06:24:28;;;;;;;9.50;3.40;;;14.00;53.30;;;17.22;37.37;102380.75;5053336;28;20297;-68
2023/05/17 06:26:55;;;;;;;9.77;3.17;;;14.00;52.30;;;17.18;37.19;102371.47;5053306;28;20280;-68
2023/05/17 06:29:23;;;;;;;7.57;2.90;;;14.00;52.10;;;17.19;36.57;102367.78;5052863;28;20233;-69
2023/05/17 06:31:50;;;;;;;8.53;3.63;;;14.00;51.30;;;17.22;36.53;102375.41;5053416;28;20590;-68
2023/05/17 06:34:18;;;;;;;7.63;2.90;;;14.10;51.10;;;17.28;36.16;102379.22;5053292;28;20220;-69
2023/05/17 06:36:45;;;;;;;16.70;10.33;;;14.20;50.40;;;17.31;36.29;102382.34;5053370;28;20259;-69
2023/05/17 06:39:12;;;;;;;5.90;2.60;;;14.20;50.70;;;17.38;34.86;102380.63;5053321;28;20190;-68
2023/05/17 06:41:39;;;;;;;7.07;4.00;;;14.30;47.80;;;17.48;34.43;102383.88;5053359;28;20617;-68
2023/05/17 06:44:06;;;;;;;16.00;6.23;;;14.30;48.00;;;17.65;34.98;102391.75;5052004;28;20249;-68
2023/05/17 06:46:33;;;;;;;33.70;24.97;;;14.40;49.10;;;17.88;34.82;102390.69;5053383;28;20232;-68
2023/05/17 06:49:00;;;;;;;10.00;6.27;;;14.50;49.50;;;18.11;34.46;102398.63;5052868;28;20292;-70
2023/05/17 06:51:29;;;;;;;9.83;4.30;;;14.80;48.80;;;18.33;33.82;102395.03;5052711;28;20673;-70
2023/05/17 06:53:56;;;;;;;9.20;2.90;;;15.00;48.10;;;18.47;31.92;102407.56;5053081;28;20288;-69
2023/05/17 06:56:23;;;;;;;7.77;3.27;;;15.00;43.90;;;18.49;31.67;102408.22;5053205;28;20194;-68
2023/05/17 06:58:50;;;;;;;9.57;3.37;;;15.00;44.00;;;18.48;31.48;102419.88;5053164;28;20185;-68
2023/05/17 07:01:17;;;;;;;8.43;3.87;;;15.00;43.60;;;18.48;31.66;102424.38;5053010;28;20267;-68
2023/05/17 07:03:44;;;;;;;7.57;3.00;;;15.00;44.30;;;18.43;32.00;102427.56;5052637;28;20232;-69
2023/05/17 07:06:11;;;;;;;9.93;3.20;;;14.90;45.00;;;18.43;32.28;102432.06;5053232;28;20200;-69
2023/05/17 07:08:40;;;;;;;8.00;3.30;;;14.90;45.40;;;18.36;32.67;102442.66;5051937;28;20239;-69
2023/05/17 07:11:06;;;;;;;15.47;8.27;;;14.80;46.10;;;18.29;33.44;102447.06;5052874;28;20726;-69
2023/05/17 07:13:33;;;;;;;13.00;5.27;;;14.80;47.40;;;18.24;33.94;102452.13;5052801;28;20220;-69
2023/05/17 07:16:00;;;;;;;9.23;3.60;;;14.80;48.30;;;18.22;34.33;102454.97;5052214;28;20210;-69
2023/05/17 07:18:27;;;;;;;11.23;3.33;;;14.80;48.90;;;18.21;34.76;102455.13;5052616;28;20190;-69
2023/05/17 07:20:54;;;;;;;11.33;3.57;;;14.80;49.50;;;18.20;34.97;102453.50;5033592;28;20214;-69
2023/05/17 07:23:21;;;;;;;11.37;4.80;;;14.80;50.10;;;18.23;35.69;102458.47;5032241;28;20194;-68
2023/05/17 07:25:50;;;;;;;11.53;3.43;;;14.80;50.60;;;18.27;35.54;102454.44;5032736;28;20699;-68
2023/05/17 07:28:17;;;;;;;8.80;2.77;;;14.80;51.10;;;18.24;35.62;102452.94;5038121;28;20485;-68
2023/05/17 07:30:44;;;;;;;10.03;4.27;;;14.80;50.80;;;18.24;35.31;102458.28;5052031;28;20641;-68
2023/05/17 07:33:11;;;;;;;7.33;3.73;;;14.80;50.50;;;18.30;35.54;102458.56;5052239;28;20225;-67
2023/05/17 07:35:38;;;;;;;10.20;3.40;;;14.80;50.50;;;18.31;35.22;102458.38;5052648;28;20209;-69
2023/05/17 07:38:05;;;;;;;9.60;3.77;;;14.90;50.40;;;18.36;35.26;102465.81;5051681;28;20304;-67
2023/05/17 07:40:31;;;;;;;7.10;3.03;;;14.90;50.40;;;18.43;34.93;102461.41;5052773;28;20186;-68
2023/05/17 07:43:00;;;;;;;9.23;3.10;;;15.00;50.00;;;18.46;34.93;102469.91;5052573;28;20206;-68
2023/05/17 07:45:27;;;;;;;12.30;3.20;;;15.10;50.00;;;18.51;34.74;102474.69;5052906;28;20578;-69
2023/05/17 07:47:55;;;;;;;7.90;3.77;;;15.10;49.40;;;18.52;34.64;102482.50;5052965;28;20186;-68
2023/05/17 07:50:22;;;;;;;12.68;3.85;;;15.10;49.20;;;18.70;34.28;102485.66;5032219;28;20437;-69
2023/05/17 07:52:49;;;;;;;7.60;2.90;;;15.20;49.10;;;18.67;33.81;102475.34;5051483;28;20287;-67
2023/05/17 07:55:16;;;;;;;7.33;3.30;;;15.20;48.20;;;18.70;33.90;102482.97;5052107;28;20206;-67
2023/05/17 07:57:46;;;;;;;10.87;3.03;;;15.20;48.10;;;18.75;33.58;102477.09;5051897;28;20200;-68
2023/05/17 08:00:18;;;;;;;10.47;3.13;;;15.30;47.40;;;19.07;32.76;102483.84;5051495;28;20186;-69
2023/05/17 08:02:45;;;;;;;11.10;3.33;;;15.30;46.60;;;19.43;32.51;102482.03;5052220;28;20261;-70
2023/05/17 08:05:12;;;;;;;5.57;3.57;;;15.50;46.80;;;19.57;31.87;102475.78;5051280;28;20202;-68
2023/05/17 08:07:39;;;;;;;7.57;3.23;;;15.60;45.80;;;19.59;31.57;102479.09;5051753;28;20214;-70
2023/05/17 08:10:07;;;;;;;6.63;3.35;;;15.80;45.40;;;20.17;30.56;102491.31;5049440;28;20456;-68
2023/05/17 08:12:34;;;;;;;7.43;2.70;;;15.90;45.50;;;20.02;30.59;102491.41;5051729;28;20205;-68
2023/05/17 08:15:01;;;;;;;8.93;2.63;;;16.00;44.10;;;19.90;30.22;102509.00;5051171;28;20210;-68
2023/05/17 08:17:30;;;;;;;6.93;2.47;;;16.10;43.20;;;19.72;30.14;102505.97;5050593;28;20683;-68
2023/05/17 08:19:57;;;;;;;6.03;2.47;;;16.10;42.00;;;19.63;30.34;102511.63;5051289;28;20194;-68
2023/05/17 08:22:25;;;;;;;5.10;2.47;;;16.10;42.30;;;20.36;29.82;102513.91;5051077;28;20675;-68
2023/05/17 08:24:52;;;;;;;8.10;2.70;;;16.20;42.70;;;21.24;28.98;102514.00;5051848;28;20269;-68
2023/05/17 08:27:19;;;;;;;8.13;2.50;;;16.50;42.30;;;21.47;28.73;102515.31;5054881;28;20292;-68
2023/05/17 08:29:46;;;;;;;4.77;2.37;;;16.80;42.40;;;21.83;29.05;102519.50;5050165;28;20703;-68
2023/05/17 08:32:12;;;;;;;6.00;2.30;;;17.10;42.50;;;22.29;27.72;102515.00;5053288;28;20257;-69
2023/05/17 08:34:41;;;;;;;6.70;3.50;;;17.30;41.60;;;22.78;26.31;102515.34;5054654;28;20428;-68
2023/05/17 08:37:08;;;;;;;3.97;1.83;;;17.50;40.50;;;22.67;27.36;102515.16;5054798;28;20196;-69
2023/05/17 08:39:35;;;;;;;6.40;2.90;;;17.80;40.40;;;22.83;27.10;102512.84;5051301;28;20202;-68
2023/05/17 08:42:06;;;;;;;14.07;3.37;;;18.00;40.40;;;22.64;27.02;102524.47;5050312;28;20209;-68
2023/05/17 08:44:35;;;;;;;5.63;2.67;;;18.10;39.40;;;22.19;27.61;102525.31;5054781;28;20297;-69
2023/05/17 08:47:03;;;;;;;7.83;3.27;;;18.10;39.20;;;21.64;27.71;102518.44;5055261;28;20240;-68
2023/05/17 08:49:33;;;;;;;7.40;3.60;;;17.90;38.80;;;21.19;28.81;102533.38;5052257;28;20241;-68
2023/05/17 08:52:08;;;;;;;7.83;2.80;;;17.70;39.50;;;20.85;28.74;102522.66;5054922;28;20481;-69
2023/05/17 08:54:35;;;;;;;8.43;2.77;;;17.60;39.50;;;20.55;28.77;102539.97;5055132;28;20286;-69
2023/05/17 08:57:06;;;;;;;7.17;2.30;;;17.20;38.70;;;20.25;28.59;102545.53;5055272;28;20197;-69
2023/05/17 08:59:34;;;;;;;8.67;6.07;;;16.90;39.00;;;20.08;29.52;102544.13;5052712;28;20243;-69
2023/05/17 09:02:02;;;;;;;6.40;2.67;;;16.80;40.30;;;20.05;29.18;102541.84;5045172;28;20309;-70
2023/05/17 09:04:30;;;;;;;6.33;3.57;;;16.60;39.30;;;20.58;28.71;102544.97;5054321;28;20217;-69
2023/05/17 09:06:57;;;;;;;9.33;2.90;;;16.60;40.10;;;20.83;27.41;102538.09;5054607;28;20177;-68
2023/05/17 09:09:26;;;;;;;7.90;2.33;;;16.70;37.90;;;20.82;27.56;102547.16;5053383;28;20206;-69
2023/05/17 09:11:54;;;;;;;7.07;2.53;;;16.80;38.10;;;20.70;27.01;102554.09;5040105;28;20288;-69
2023/05/17 09:14:21;;;;;;;9.10;2.87;;;16.80;37.20;;;20.68;27.44;102550.78;5053417;28;20232;-68
2023/05/17 09:16:59;;;;;;;6.50;2.37;;;16.70;37.50;;;20.63;27.14;102555.91;5054920;28;20189;-70
2023/05/17 09:19:26;;;;;;;4.27;2.87;;;16.70;37.90;;;20.48;27.62;102556.00;5052414;28;20281;-69
2023/05/17 09:21:54;;;;;;;7.13;2.50;;;16.70;38.30;;;20.25;28.28;102564.25;5052876;28;20213;-69
2023/05/17 09:24:29;;;;;;;4.73;2.50;;;16.50;38.40;;;20.06;28.58;102567.53;5053546;28;20258;-68
2023/05/17 09:27:06;;;;;;;5.70;2.20;;;16.50;39.00;;;20.61;28.05;102566.78;5048052;28;20439;-69
2023/05/17 09:29:34;;;;;;;5.77;1.97;;;16.40;39.80;;;20.94;28.35;102567.81;5049716;28;20228;-69
2023/05/17 09:32:12;;;;;;;5.90;3.17;;;16.60;40.40;;;21.99;27.25;102562.03;5050491;28;20277;-69
2023/05/17 09:34:40;;;;;;;5.00;2.13;;;17.00;39.60;;;23.08;25.86;102552.44;5039464;28;20868;-68
2023/05/17 09:37:13;;;;;;;8.00;3.23;;;17.40;39.30;;;23.43;25.29;102562.66;5053598;28;20267;-68
2023/05/17 09:39:46;;;;;;;5.80;3.97;;;17.90;37.90;;;23.41;25.33;102553.16;5051988;28;20196;-68
2023/05/17 09:42:15;;;;;;;9.85;3.78;;;18.30;37.30;;;23.43;24.36;102553.75;5053441;28;20499;-69
2023/05/17 09:44:48;;;;;;;11.27;4.03;;;18.40;35.70;;;23.00;25.01;102553.50;5053062;28;20665;-69
2023/05/17 09:47:23;;;;;;;8.97;3.87;;;18.50;36.30;;;22.47;25.72;102560.81;5053501;28;20615;-69
2023/05/17 09:49:51;;;;;;;6.33;2.70;;;18.40;35.80;;;22.04;26.22;102559.56;5051557;28;20210;-70
2023/05/17 09:52:20;;;;;;;9.03;3.00;;;18.30;36.20;;;21.65;26.89;102567.53;5052837;28;20213;-70
2023/05/17 09:54:56;;;;;;;11.13;4.07;;;18.10;36.50;;;21.26;27.41;102566.34;5048216;28;20318;-70
2023/05/17 09:57:26;;;;;;;5.40;2.43;;;17.80;36.70;;;21.19;27.75;102565.50;5047207;28;20207;-70
2023/05/17 09:59:56;;;;;;;9.17;2.87;;;17.60;37.10;;;21.52;27.61;102560.25;5050605;28;20219;-69
2023/05/17 10:02:29;;;;;;;6.57;2.17;;;17.60;37.70;;;21.97;26.82;102572.13;5053192;28;20197;-70
2023/05/17 10:04:58;;;;;;;7.00;2.60;;;17.60;38.20;;;22.19;27.05;102565.56;5041139;28;20709;-70
2023/05/17 10:07:26;;;;;;;7.67;3.17;;;17.70;38.20;;;22.14;26.50;102570.72;5052593;28;20229;-69
2023/05/17 10:09:56;;;;;;;5.37;2.73;;;17.80;38.10;;;22.02;26.83;102569.66;5053079;28;20220;-70
2023/05/17 10:12:30;;;;;;;7.30;3.27;;;17.80;38.20;;;22.11;27.06;102563.06;5051351;28;20198;-69
2023/05/17 10:14:58;;;;;;;6.93;4.17;;;18.00;38.70;;;22.13;27.30;102563.72;5048407;28;20210;-69
2023/05/17 10:17:28;;;;;;;9.43;4.80;;;18.00;38.50;;;21.98;27.14;102568.44;5046228;28;20206;-69